Time,TemperatureF,DewpointF,PressureIn,WindDirection,WindDirectionDegrees,WindSpeedMPH,WindSpeedGustMPH,Humidity,HourlyPrecipIn,Conditions,Clouds,dailyrainin,SoftwareType,DateUTC
2013-06-25 00:00:00,76.5,74.7,30.09,SSE,165,0.0,0.0,94,0.00,,---,0.00,VWS V14.01,2013-06-25 05:00:00,
2013-06-25 00:03:00,76.4,74.9,30.09,SSE,165,0.0,0.0,95,0.00,,---,0.00,VWS V14.01,2013-06-25 05:03:00,
2013-06-25 00:08:00,76.3,74.4,30.09,SSE,165,0.0,0.0,94,0.00,,---,0.00,VWS V14.01,2013-06-25 05:08:00,
2013-06-25 00:13:00,76.2,74.3,30.09,SSE,165,0.0,0.0,94,0.00,,---,0.00,VWS V14.01,2013-06-25 05:13:00,
2013-06-25 00:15:00,76.2,74.3,30.09,SSE,165,0.0,0.0,94,0.00,,---,0.00,VWS V14.01,2013-06-25 05:15:00,
2013-06-25 00:18:00,76.1,74.6,30.09,SSE,165,0.0,0.0,95,0.00,,---,0.00,VWS V14.01,2013-06-25 05:18:00,
2013-06-25 00:23:00,76.0,74.5,30.09,SSE,165,0.0,0.0,95,0.00,,---,0.00,VWS V14.01,2013-06-25 05:23:00,
2013-06-25 00:29:00,76.0,74.5,30.09,SSE,165,0.0,0.0,95,0.00,,---,0.00,VWS V14.01,2013-06-25 05:29:00,
2013-06-25 00:30:00,76.0,74.5,30.09,SSE,165,0.0,0.0,95,0.00,,---,0.00,VWS V14.01,2013-06-25 05:30:00,
2013-06-25 00:34:00,76.0,74.5,30.09,SSE,165,0.0,0.0,95,0.00,,---,0.00,VWS V14.01,2013-06-25 05:34:00,
2013-06-25 00:39:00,75.9,74.4,30.09,SSE,165,0.0,0.0,95,0.00,,---,0.00,VWS V14.01,2013-06-25 05:39:00,
2013-06-25 00:44:00,75.7,74.2,30.08,SSE,165,0.0,0.0,95,0.00,,---,0.00,VWS V14.01,2013-06-25 05:44:00,
2013-06-25 00:45:00,75.7,74.2,30.08,SSE,165,0.0,0.0,95,0.00,,---,0.00,VWS V14.01,2013-06-25 05:45:00,
2013-06-25 00:49:00,75.6,74.4,30.08,SSE,165,0.0,0.0,96,0.00,,---,0.00,VWS V14.01,2013-06-25 05:49:00,
2013-06-25 00:54:00,75.5,74.3,30.08,SSE,165,0.0,0.0,96,0.00,,---,0.00,VWS V14.01,2013-06-25 05:54:00,
2013-06-25 00:59:00,75.4,74.2,30.08,SSE,165,0.0,0.0,96,0.00,,---,0.00,VWS V14.01,2013-06-25 05:59:00,
2013-06-25 01:00:00,75.4,74.2,30.08,SSE,165,0.0,0.0,96,0.00,,---,0.00,VWS V14.01,2013-06-25 06:00:00,
2013-06-25 01:04:00,75.3,74.1,30.08,SSE,165,0.0,0.0,96,0.00,,---,0.00,VWS V14.01,2013-06-25 06:04:00,
2013-06-25 01:10:00,75.2,74.0,30.08,SSE,165,0.0,0.0,96,0.00,,---,0.00,VWS V14.01,2013-06-25 06:10:00,
2013-06-25 01:15:00,75.1,73.9,30.07,SSE,165,0.0,0.0,96,0.00,,---,0.00,VWS V14.01,2013-06-25 06:15:00,
2013-06-25 01:20:00,75.1,73.9,30.07,SSE,165,0.0,0.0,96,0.00,,---,0.00,VWS V14.01,2013-06-25 06:20:00,
2013-06-25 01:25:00,75.1,73.9,30.07,SSE,165,0.0,0.0,96,0.00,,---,0.00,VWS V14.01,2013-06-25 06:25:00,
2013-06-25 01:30:00,75.1,74.2,30.07,SSE,165,0.0,0.0,97,0.00,,---,0.00,VWS V14.01,2013-06-25 06:30:00,
2013-06-25 01:35:00,75.1,74.2,30.07,SSE,165,0.0,0.0,97,0.00,,---,0.00,VWS V14.01,2013-06-25 06:35:00,
2013-06-25 01:40:00,75.0,74.1,30.07,SSE,165,0.0,0.0,97,0.00,,---,0.00,VWS V14.01,2013-06-25 06:40:00,
2013-06-25 01:45:00,75.0,73.8,30.07,SSE,165,0.0,0.0,96,0.00,,---,0.00,VWS V14.01,2013-06-25 06:45:00,
2013-06-25 01:50:00,74.8,73.6,30.07,SSE,165,0.0,0.0,96,0.00,,---,0.00,VWS V14.01,2013-06-25 06:50:00,
2013-06-25 01:55:00,74.8,73.6,30.07,SSE,165,0.0,0.0,96,0.00,,---,0.00,VWS V14.01,2013-06-25 06:55:00,
2013-06-25 02:00:00,74.8,73.9,30.07,SSE,165,0.0,0.0,97,0.00,,---,0.00,VWS V14.01,2013-06-25 07:00:00,
2013-06-25 02:06:00,74.8,73.9,30.07,SSE,165,0.0,0.0,97,0.00,,---,0.00,VWS V14.01,2013-06-25 07:06:00,
2013-06-25 02:11:00,74.7,73.8,30.07,SSE,165,0.0,0.0,97,0.00,,---,0.00,VWS V14.01,2013-06-25 07:11:00,
2013-06-25 02:15:00,74.7,73.8,30.07,SSE,165,0.0,0.0,97,0.00,,---,0.00,VWS V14.01,2013-06-25 07:15:00,
2013-06-25 02:16:00,74.7,73.8,30.07,SSE,165,0.0,0.0,97,0.00,,---,0.00,VWS V14.01,2013-06-25 07:16:00,
2013-06-25 02:21:00,74.6,73.7,30.07,SSE,165,0.0,0.0,97,0.00,,---,0.00,VWS V14.01,2013-06-25 07:21:00,
2013-06-25 02:26:00,74.6,73.7,30.07,SSE,165,0.0,0.0,97,0.00,,---,0.00,VWS V14.01,2013-06-25 07:26:00,
2013-06-25 02:30:00,74.6,73.7,30.07,SSE,165,0.0,0.0,97,0.00,,---,0.00,VWS V14.01,2013-06-25 07:30:00,
2013-06-25 02:31:00,74.5,73.6,30.07,SSE,165,0.0,0.0,97,0.00,,---,0.00,VWS V14.01,2013-06-25 07:31:00,
2013-06-25 02:36:00,74.6,73.7,30.07,SSE,165,0.0,0.0,97,0.00,,---,0.00,VWS V14.01,2013-06-25 07:36:00,
2013-06-25 02:41:00,74.5,73.6,30.07,SSE,165,0.0,0.0,97,0.00,,---,0.00,VWS V14.01,2013-06-25 07:41:00,
2013-06-25 02:45:00,74.4,73.5,30.07,SSE,165,0.0,0.0,97,0.00,,---,0.00,VWS V14.01,2013-06-25 07:45:00,
2013-06-25 02:46:00,74.3,73.4,30.07,SSE,165,0.0,0.0,97,0.00,,---,0.00,VWS V14.01,2013-06-25 07:46:00,
2013-06-25 02:52:00,74.2,73.3,30.07,SSE,165,0.0,0.0,97,0.00,,---,0.00,VWS V14.01,2013-06-25 07:52:00,
2013-06-25 02:57:00,74.1,73.2,30.07,SSE,165,0.0,0.0,97,0.00,,---,0.00,VWS V14.01,2013-06-25 07:57:00,
2013-06-25 03:00:00,74.1,73.2,30.07,SSE,165,0.0,0.0,97,0.00,,---,0.00,VWS V14.01,2013-06-25 08:00:00,
2013-06-25 03:02:00,74.0,73.1,30.07,SSE,165,0.0,0.0,97,0.00,,---,0.00,VWS V14.01,2013-06-25 08:02:00,
2013-06-25 03:07:00,73.9,73.0,30.07,SSE,165,0.0,0.0,97,0.00,,---,0.00,VWS V14.01,2013-06-25 08:07:00,
2013-06-25 03:12:00,73.8,72.9,30.07,SSE,165,0.0,0.0,97,0.00,,---,0.00,VWS V14.01,2013-06-25 08:12:00,
2013-06-25 03:15:00,73.8,72.9,30.06,SSE,165,0.0,0.0,97,0.00,,---,0.00,VWS V14.01,2013-06-25 08:15:00,
2013-06-25 03:17:00,73.9,73.0,30.06,SSE,165,0.0,0.0,97,0.00,,---,0.00,VWS V14.01,2013-06-25 08:17:00,
2013-06-25 03:22:00,74.0,73.1,30.06,SSE,165,0.0,0.0,97,0.00,,---,0.00,VWS V14.01,2013-06-25 08:22:00,
2013-06-25 03:27:00,74.0,73.1,30.06,SSE,165,0.0,0.0,97,0.00,,---,0.00,VWS V14.01,2013-06-25 08:27:00,
2013-06-25 03:30:00,74.0,73.1,30.06,SSE,165,0.0,0.0,97,0.00,,---,0.00,VWS V14.01,2013-06-25 08:30:00,
2013-06-25 03:32:00,73.9,73.0,30.06,SSE,165,0.0,0.0,97,0.00,,---,0.00,VWS V14.01,2013-06-25 08:32:00,
2013-06-25 03:37:00,73.8,72.9,30.06,SSE,165,0.0,0.0,97,0.00,,---,0.00,VWS V14.01,2013-06-25 08:37:00,
2013-06-25 03:43:00,73.6,72.7,30.06,SSE,165,0.0,0.0,97,0.00,,---,0.00,VWS V14.01,2013-06-25 08:43:00,
2013-06-25 03:45:00,73.5,72.6,30.06,SSE,165,0.0,0.0,97,0.00,,---,0.00,VWS V14.01,2013-06-25 08:45:00,
2013-06-25 03:48:00,73.5,72.6,30.06,SSE,165,0.0,0.0,97,0.00,,---,0.00,VWS V14.01,2013-06-25 08:48:00,
2013-06-25 03:53:00,73.4,72.5,30.06,SSE,165,0.0,0.0,97,0.00,,---,0.00,VWS V14.01,2013-06-25 08:53:00,
2013-06-25 03:58:00,73.3,72.4,30.06,SSE,165,0.0,0.0,97,0.00,,---,0.00,VWS V14.01,2013-06-25 08:58:00,
2013-06-25 04:00:00,73.3,72.4,30.06,SSE,165,0.0,0.0,97,0.00,,---,0.00,VWS V14.01,2013-06-25 09:00:00,
2013-06-25 04:03:00,73.3,72.4,30.06,SSE,165,0.0,0.0,97,0.00,,---,0.00,VWS V14.01,2013-06-25 09:03:00,
2013-06-25 04:08:00,73.3,72.4,30.06,SSE,165,0.0,0.0,97,0.00,,---,0.00,VWS V14.01,2013-06-25 09:08:00,
2013-06-25 04:13:00,73.2,72.3,30.06,SSE,165,0.0,0.0,97,0.00,,---,0.00,VWS V14.01,2013-06-25 09:13:00,
2013-06-25 04:15:00,73.2,72.3,30.06,SSE,165,0.0,0.0,97,0.00,,---,0.00,VWS V14.01,2013-06-25 09:15:00,
2013-06-25 04:18:00,73.1,72.2,30.06,SSE,165,0.0,0.0,97,0.00,,---,0.00,VWS V14.01,2013-06-25 09:18:00,
2013-06-25 04:24:00,73.1,72.2,30.06,SSE,165,0.0,0.0,97,0.00,,---,0.00,VWS V14.01,2013-06-25 09:24:00,
2013-06-25 04:29:00,73.0,72.1,30.06,SSE,165,0.0,0.0,97,0.00,,---,0.00,VWS V14.01,2013-06-25 09:29:00,
2013-06-25 04:30:00,73.0,72.1,30.06,SSE,165,0.0,0.0,97,0.00,,---,0.00,VWS V14.01,2013-06-25 09:30:00,
2013-06-25 04:34:00,72.9,72.0,30.06,SSE,165,0.0,0.0,97,0.00,,---,0.00,VWS V14.01,2013-06-25 09:34:00,
2013-06-25 04:39:00,72.7,71.8,30.06,SSE,165,0.0,0.0,97,0.00,,---,0.00,VWS V14.01,2013-06-25 09:39:00,
2013-06-25 04:44:00,72.7,71.8,30.06,SSE,165,0.0,0.0,97,0.00,,---,0.00,VWS V14.01,2013-06-25 09:44:00,
2013-06-25 04:45:00,72.6,71.7,30.06,SSE,165,0.0,0.0,97,0.00,,---,0.00,VWS V14.01,2013-06-25 09:45:00,
2013-06-25 04:49:00,72.6,72.0,30.06,SSE,165,0.0,0.0,98,0.00,,---,0.00,VWS V14.01,2013-06-25 09:49:00,
2013-06-25 04:54:00,72.5,71.9,30.06,SSE,165,0.0,0.0,98,0.00,,---,0.00,VWS V14.01,2013-06-25 09:54:00,
2013-06-25 04:59:00,72.5,71.9,30.06,SSE,165,0.0,0.0,98,0.00,,---,0.00,VWS V14.01,2013-06-25 09:59:00,
2013-06-25 05:00:00,72.5,71.9,30.06,SSE,165,0.0,0.0,98,0.00,,---,0.00,VWS V14.01,2013-06-25 10:00:00,
2013-06-25 05:04:00,72.4,71.8,30.06,SSE,165,0.0,0.0,98,0.00,,---,0.00,VWS V14.01,2013-06-25 10:04:00,
2013-06-25 05:10:00,72.4,71.8,30.06,SSE,165,0.0,0.0,98,0.00,,---,0.00,VWS V14.01,2013-06-25 10:10:00,
2013-06-25 05:15:00,72.4,71.8,30.07,SSE,165,0.0,0.0,98,0.00,,---,0.00,VWS V14.01,2013-06-25 10:15:00,
2013-06-25 05:20:00,72.3,71.7,30.07,SSE,165,0.0,0.0,98,0.00,,---,0.00,VWS V14.01,2013-06-25 10:20:00,
2013-06-25 05:25:00,72.2,71.6,30.07,SSE,165,0.0,0.0,98,0.00,,---,0.00,VWS V14.01,2013-06-25 10:25:00,
2013-06-25 05:30:00,72.2,71.6,30.07,SSE,165,0.0,0.0,98,0.00,,---,0.00,VWS V14.01,2013-06-25 10:30:00,
2013-06-25 05:35:00,72.1,71.5,30.07,SSE,165,0.0,0.0,98,0.00,,---,0.00,VWS V14.01,2013-06-25 10:35:00,
2013-06-25 05:40:00,72.0,71.4,30.07,SSE,165,0.0,0.0,98,0.00,,---,0.00,VWS V14.01,2013-06-25 10:40:00,
2013-06-25 05:45:00,72.0,71.4,30.07,SSE,165,0.0,0.0,98,0.00,,---,0.00,VWS V14.01,2013-06-25 10:45:00,
2013-06-25 05:50:00,71.9,71.3,30.07,SSE,165,0.0,0.0,98,0.00,,---,0.00,VWS V14.01,2013-06-25 10:50:00,
2013-06-25 05:55:00,71.9,71.3,30.07,SSE,165,0.0,0.0,98,0.00,,---,0.00,VWS V14.01,2013-06-25 10:55:00,
2013-06-25 06:00:00,71.9,71.3,30.07,SSE,165,0.0,0.0,98,0.00,,---,0.00,VWS V14.01,2013-06-25 11:00:00,
2013-06-25 06:01:00,71.9,71.3,30.07,SSE,165,0.0,0.0,98,0.00,,---,0.00,VWS V14.01,2013-06-25 11:01:00,
2013-06-25 06:06:00,71.9,71.3,30.07,SSE,165,0.0,0.0,98,0.00,,---,0.00,VWS V14.01,2013-06-25 11:06:00,
2013-06-25 06:11:00,71.9,71.3,30.07,SSE,165,0.0,0.0,98,0.00,,---,0.00,VWS V14.01,2013-06-25 11:11:00,
2013-06-25 06:15:00,71.9,71.3,30.07,SSE,165,0.0,0.0,98,0.00,,---,0.00,VWS V14.01,2013-06-25 11:15:00,
2013-06-25 06:16:00,71.8,71.2,30.07,SSE,165,0.0,0.0,98,0.00,,---,0.00,VWS V14.01,2013-06-25 11:16:00,
2013-06-25 06:21:00,71.7,71.1,30.07,SSE,165,0.0,0.0,98,0.00,,---,0.00,VWS V14.01,2013-06-25 11:21:00,
2013-06-25 06:26:00,71.8,71.2,30.07,SSE,165,0.0,0.0,98,0.00,,---,0.00,VWS V14.01,2013-06-25 11:26:00,
2013-06-25 06:30:00,71.7,71.1,30.08,SSE,165,0.0,0.0,98,0.00,,---,0.00,VWS V14.01,2013-06-25 11:30:00,
2013-06-25 06:31:00,71.8,71.2,30.08,SSE,165,0.0,0.0,98,0.00,,---,0.00,VWS V14.01,2013-06-25 11:31:00,
2013-06-25 06:36:00,71.8,71.2,30.08,SSE,165,0.0,0.0,98,0.00,,---,0.00,VWS V14.01,2013-06-25 11:36:00,
2013-06-25 06:42:00,71.8,71.2,30.08,SSE,165,0.0,0.0,98,0.00,,---,0.00,VWS V14.01,2013-06-25 11:42:00,
2013-06-25 06:45:00,71.8,71.2,30.08,SSE,165,0.0,0.0,98,0.00,,---,0.00,VWS V14.01,2013-06-25 11:45:00,
2013-06-25 06:47:00,71.8,71.2,30.08,SSE,165,0.0,0.0,98,0.00,,---,0.00,VWS V14.01,2013-06-25 11:47:00,
2013-06-25 06:52:00,71.9,71.3,30.08,SSE,165,0.0,0.0,98,0.00,,---,0.00,VWS V14.01,2013-06-25 11:52:00,
2013-06-25 06:57:00,72.0,71.4,30.08,SSE,165,0.0,0.0,98,0.00,,---,0.00,VWS V14.01,2013-06-25 11:57:00,
2013-06-25 07:00:00,72.1,71.5,30.08,SSE,165,0.0,0.0,98,0.00,,---,0.00,VWS V14.01,2013-06-25 12:00:00,
2013-06-25 07:02:00,72.2,71.6,30.08,SSE,165,0.0,0.0,98,0.00,,---,0.00,VWS V14.01,2013-06-25 12:02:00,
2013-06-25 07:07:00,72.3,71.7,30.08,SSE,165,0.0,0.0,98,0.00,,---,0.00,VWS V14.01,2013-06-25 12:07:00,
2013-06-25 07:12:00,72.5,71.9,30.08,SSE,165,0.0,0.0,98,0.00,,---,0.00,VWS V14.01,2013-06-25 12:12:00,
2013-06-25 07:15:00,72.6,72.0,30.08,SSE,165,0.0,0.0,98,0.00,,---,0.00,VWS V14.01,2013-06-25 12:15:00,
2013-06-25 07:17:00,72.8,72.2,30.08,SSE,165,0.0,0.0,98,0.00,,---,0.00,VWS V14.01,2013-06-25 12:17:00,
2013-06-25 07:22:00,73.1,72.5,30.08,SSE,165,0.0,0.0,98,0.00,,---,0.00,VWS V14.01,2013-06-25 12:22:00,
2013-06-25 07:27:00,73.3,72.7,30.08,SSE,165,0.0,0.0,98,0.00,,---,0.00,VWS V14.01,2013-06-25 12:27:00,
2013-06-25 07:30:00,73.4,72.8,30.08,SSE,165,0.0,0.0,98,0.00,,---,0.00,VWS V14.01,2013-06-25 12:30:00,
2013-06-25 07:32:00,73.7,73.1,30.08,SSE,165,0.0,0.0,98,0.00,,---,0.00,VWS V14.01,2013-06-25 12:32:00,
2013-06-25 07:37:00,74.2,73.6,30.08,SSE,165,0.0,0.0,98,0.00,,---,0.00,VWS V14.01,2013-06-25 12:37:00,
2013-06-25 07:43:00,74.6,74.0,30.08,SSE,165,0.0,0.0,98,0.00,,---,0.00,VWS V14.01,2013-06-25 12:43:00,
2013-06-25 07:45:00,74.8,74.2,30.09,SSE,165,0.0,0.0,98,0.00,,---,0.00,VWS V14.01,2013-06-25 12:45:00,
2013-06-25 07:48:00,75.1,74.5,30.09,SSE,165,0.0,0.0,98,0.00,,---,0.00,VWS V14.01,2013-06-25 12:48:00,
2013-06-25 07:53:00,75.5,74.9,30.09,SSE,165,0.0,0.0,98,0.00,,---,0.00,VWS V14.01,2013-06-25 12:53:00,
2013-06-25 07:58:00,76.0,75.4,30.09,SSE,165,0.0,0.0,98,0.00,,---,0.00,VWS V14.01,2013-06-25 12:58:00,
2013-06-25 08:00:00,76.1,75.5,30.09,SSE,165,0.0,0.0,98,0.00,,---,0.00,VWS V14.01,2013-06-25 13:00:00,
2013-06-25 08:03:00,76.7,75.8,30.09,SSE,165,0.0,0.0,97,0.00,,---,0.00,VWS V14.01,2013-06-25 13:03:00,
2013-06-25 08:08:00,77.5,76.0,30.09,SSE,165,0.0,0.0,95,0.00,,---,0.00,VWS V14.01,2013-06-25 13:08:00,
2013-06-25 08:13:00,78.2,76.0,30.09,SSE,165,0.0,0.0,93,0.00,,---,0.00,VWS V14.01,2013-06-25 13:13:00,
2013-06-25 08:15:00,78.4,76.2,30.09,SSE,165,0.0,0.0,93,0.00,,---,0.00,VWS V14.01,2013-06-25 13:15:00,
2013-06-25 08:18:00,79.3,76.8,30.09,SSE,165,0.0,0.0,92,0.00,,---,0.00,VWS V14.01,2013-06-25 13:18:00,
2013-06-25 08:23:00,80.3,76.8,30.09,South,188,0.0,4.0,89,0.00,,---,0.00,VWS V14.01,2013-06-25 13:23:00,
2013-06-25 08:28:00,81.0,77.1,30.09,South,185,0.0,4.0,88,0.00,,---,0.00,VWS V14.01,2013-06-25 13:28:00,
2013-06-25 08:30:00,81.1,77.2,30.09,South,185,0.0,4.0,88,0.00,,---,0.00,VWS V14.01,2013-06-25 13:30:00,
2013-06-25 08:33:00,81.6,77.4,30.09,South,189,0.0,0.0,87,0.00,,---,0.00,VWS V14.01,2013-06-25 13:33:00,
2013-06-25 08:38:00,82.1,77.5,30.09,South,187,0.0,1.0,86,0.00,,---,0.00,VWS V14.01,2013-06-25 13:38:00,
2013-06-25 08:43:00,82.0,77.1,30.09,South,188,0.0,1.0,85,0.00,,---,0.00,VWS V14.01,2013-06-25 13:43:00,
2013-06-25 08:45:00,82.1,77.2,30.09,South,188,0.0,1.0,85,0.00,,---,0.00,VWS V14.01,2013-06-25 13:45:00,
2013-06-25 08:48:00,82.3,77.7,30.09,South,184,0.0,0.0,86,0.00,,---,0.00,VWS V14.01,2013-06-25 13:48:00,
2013-06-25 08:53:00,82.9,77.2,30.09,SSW,205,0.0,0.0,83,0.00,,---,0.00,VWS V14.01,2013-06-25 13:53:00,
2013-06-25 08:58:00,83.5,77.4,30.08,SSE,164,0.0,0.0,82,0.00,,---,0.00,VWS V14.01,2013-06-25 13:58:00,
2013-06-25 09:00:00,83.6,77.5,30.08,South,174,0.0,0.0,82,0.00,,---,0.00,VWS V14.01,2013-06-25 14:00:00,
2013-06-25 09:03:00,83.9,78.6,30.08,South,177,0.0,0.0,84,0.00,,---,0.00,VWS V14.01,2013-06-25 14:03:00,
2013-06-25 09:08:00,84.2,78.1,30.08,South,174,0.0,0.0,82,0.00,,---,0.00,VWS V14.01,2013-06-25 14:08:00,
2013-06-25 09:13:00,84.4,77.9,30.08,SSW,208,0.0,4.0,81,0.00,,---,0.00,VWS V14.01,2013-06-25 14:13:00,
2013-06-25 09:15:00,84.4,77.6,30.08,SSW,208,0.0,4.0,80,0.00,,---,0.00,VWS V14.01,2013-06-25 14:15:00,
2013-06-25 09:19:00,84.7,78.2,30.08,SSW,207,0.0,1.0,81,0.00,,---,0.00,VWS V14.01,2013-06-25 14:19:00,
2013-06-25 09:24:00,85.0,77.8,30.08,SE,145,3.0,3.0,79,0.00,,---,0.00,VWS V14.01,2013-06-25 14:24:00,
2013-06-25 09:29:00,85.4,77.4,30.07,SSW,211,0.0,3.0,77,0.00,,---,0.00,VWS V14.01,2013-06-25 14:29:00,
2013-06-25 09:30:00,85.4,78.2,30.07,SSW,211,0.0,3.0,79,0.00,,---,0.00,VWS V14.01,2013-06-25 14:30:00,
2013-06-25 09:34:00,85.5,77.1,30.07,SSW,211,4.0,7.0,76,0.00,,---,0.00,VWS V14.01,2013-06-25 14:34:00,
2013-06-25 09:39:00,85.1,76.7,30.07,West,275,1.0,11.0,76,0.00,,---,0.00,VWS V14.01,2013-06-25 14:39:00,
2013-06-25 09:44:00,85.5,77.9,30.07,SSW,199,0.0,11.0,78,0.00,,---,0.00,VWS V14.01,2013-06-25 14:44:00,
2013-06-25 09:45:00,85.5,77.9,30.07,SSW,194,0.0,11.0,78,0.00,,---,0.00,VWS V14.01,2013-06-25 14:45:00,
2013-06-25 09:49:00,85.6,76.8,30.07,SSW,200,0.0,9.0,75,0.00,,---,0.00,VWS V14.01,2013-06-25 14:49:00,
2013-06-25 09:54:00,85.9,77.1,30.07,SSW,192,0.0,9.0,75,0.00,,---,0.00,VWS V14.01,2013-06-25 14:54:00,
2013-06-25 09:59:00,85.8,77.0,30.07,SSW,196,0.0,0.0,75,0.00,,---,0.00,VWS V14.01,2013-06-25 14:59:00,
2013-06-25 10:00:00,85.8,77.0,30.07,SSW,196,0.0,9.0,75,0.00,,---,0.00,VWS V14.01,2013-06-25 15:00:00,
2013-06-25 10:05:00,85.7,77.7,30.07,SW,216,0.0,3.0,77,0.00,,---,0.00,VWS V14.01,2013-06-25 15:05:00,
2013-06-25 10:10:00,86.1,78.1,30.07,SW,223,0.0,3.0,77,0.00,,---,0.00,VWS V14.01,2013-06-25 15:10:00,
2013-06-25 10:15:00,86.8,77.1,30.07,SW,223,0.0,0.0,73,0.00,,---,0.00,VWS V14.01,2013-06-25 15:15:00,
2013-06-25 10:20:00,87.2,77.9,30.07,SSE,168,0.0,1.0,74,0.00,,---,0.00,VWS V14.01,2013-06-25 15:20:00,
2013-06-25 10:25:00,87.5,77.8,30.07,SSW,205,0.0,1.0,73,0.00,,---,0.00,VWS V14.01,2013-06-25 15:25:00,
2013-06-25 10:30:00,86.8,76.7,30.07,SSW,207,0.0,0.0,72,0.00,,---,0.00,VWS V14.01,2013-06-25 15:30:00,
2013-06-25 10:35:00,86.1,76.4,30.07,SSW,207,0.0,0.0,73,0.00,,---,0.00,VWS V14.01,2013-06-25 15:35:00,
2013-06-25 10:40:00,86.3,76.6,30.07,SSW,192,0.0,0.0,73,0.00,,---,0.00,VWS V14.01,2013-06-25 15:40:00,
2013-06-25 10:45:00,86.3,76.2,30.07,SSE,168,0.0,0.0,72,0.00,,---,0.00,VWS V14.01,2013-06-25 15:45:00,
2013-06-25 10:51:00,86.1,76.4,30.07,South,190,0.0,0.0,73,0.00,,---,0.00,VWS V14.01,2013-06-25 15:51:00,
2013-06-25 10:56:00,86.3,76.2,30.07,SSW,202,0.0,5.0,72,0.00,,---,0.00,VWS V14.01,2013-06-25 15:56:00,
2013-06-25 11:00:00,85.9,75.4,30.07,SSW,211,0.0,5.0,71,0.00,,---,0.00,VWS V14.01,2013-06-25 16:00:00,
2013-06-25 11:01:00,85.9,75.0,30.07,SSW,205,0.0,0.0,70,0.00,,---,0.00,VWS V14.01,2013-06-25 16:01:00,
2013-06-25 11:06:00,86.1,76.0,30.07,SSW,194,4.0,4.0,72,0.00,,---,0.00,VWS V14.01,2013-06-25 16:06:00,
2013-06-25 11:11:00,86.2,76.1,30.07,SSW,193,1.0,5.0,72,0.00,,---,0.00,VWS V14.01,2013-06-25 16:11:00,
2013-06-25 11:15:00,86.6,76.5,30.07,SW,214,0.0,5.0,72,0.00,,---,0.00,VWS V14.01,2013-06-25 16:15:00,
2013-06-25 11:16:00,87.0,76.9,30.07,WSW,237,0.0,0.0,72,0.00,,---,0.00,VWS V14.01,2013-06-25 16:16:00,
2013-06-25 11:21:00,87.6,75.7,30.07,SSW,200,0.0,0.0,68,0.00,,---,0.00,VWS V14.01,2013-06-25 16:21:00,
2013-06-25 11:26:00,87.0,75.2,30.07,SW,217,0.0,0.0,68,0.00,,---,0.00,VWS V14.01,2013-06-25 16:26:00,
2013-06-25 11:30:00,87.3,76.8,30.07,SW,217,0.0,0.0,71,0.00,,---,0.00,VWS V14.01,2013-06-25 16:30:00,
2013-06-25 11:31:00,87.7,75.8,30.07,SW,222,3.0,6.0,68,0.00,,---,0.00,VWS V14.01,2013-06-25 16:31:00,
2013-06-25 11:36:00,88.3,76.0,30.07,SSW,208,0.0,6.0,67,0.00,,---,0.00,VWS V14.01,2013-06-25 16:36:00,
2013-06-25 11:41:00,88.2,76.8,30.07,SSW,192,0.0,6.0,69,0.00,,---,0.00,VWS V14.01,2013-06-25 16:41:00,
2013-06-25 11:45:00,88.6,77.6,30.07,SW,216,0.0,6.0,70,0.00,,---,0.00,VWS V14.01,2013-06-25 16:45:00,
2013-06-25 11:46:00,89.1,76.3,30.07,SW,215,0.0,0.0,66,0.00,,---,0.00,VWS V14.01,2013-06-25 16:46:00,
2013-06-25 11:52:00,89.1,75.8,30.07,SW,215,0.0,7.0,65,0.00,,---,0.00,VWS V14.01,2013-06-25 16:52:00,
2013-06-25 11:57:00,89.9,77.9,30.07,SE,136,0.0,7.0,68,0.00,,---,0.00,VWS V14.01,2013-06-25 16:57:00,
2013-06-25 12:00:00,90.3,77.4,30.07,SW,234,6.0,11.0,66,0.00,,---,0.00,VWS V14.01,2013-06-25 17:00:00,
2013-06-25 12:02:00,90.4,75.6,30.07,SSW,202,0.0,6.0,62,0.00,,---,0.00,VWS V14.01,2013-06-25 17:02:00,
2013-06-25 12:07:00,90.2,76.8,30.07,WNW,300,1.0,6.0,65,0.00,,---,0.00,VWS V14.01,2013-06-25 17:07:00,
2013-06-25 12:12:00,89.5,74.8,30.07,WSW,248,0.0,7.0,62,0.00,,---,0.00,VWS V14.01,2013-06-25 17:12:00,
2013-06-25 12:15:00,89.3,75.1,30.07,West,262,0.0,7.0,63,0.00,,---,0.00,VWS V14.01,2013-06-25 17:15:00,
2013-06-25 12:17:00,89.2,75.9,30.07,SW,219,0.0,0.0,65,0.00,,---,0.00,VWS V14.01,2013-06-25 17:17:00,
2013-06-25 12:22:00,89.1,74.9,30.07,SSW,213,0.0,1.0,63,0.00,,---,0.00,VWS V14.01,2013-06-25 17:22:00,
2013-06-25 12:27:00,88.4,75.6,30.07,SW,229,0.0,1.0,66,0.00,,---,0.00,VWS V14.01,2013-06-25 17:27:00,
2013-06-25 12:30:00,88.3,75.5,30.07,SW,216,0.0,1.0,66,0.00,,---,0.00,VWS V14.01,2013-06-25 17:30:00,
2013-06-25 12:32:00,88.2,75.4,30.07,WNW,283,0.0,1.0,66,0.00,,---,0.00,VWS V14.01,2013-06-25 17:32:00,
2013-06-25 12:37:00,88.3,75.5,30.07,WSW,241,0.0,1.0,66,0.00,,---,0.00,VWS V14.01,2013-06-25 17:37:00,
2013-06-25 12:42:00,88.4,74.7,30.07,WSW,242,2.0,6.0,64,0.00,,---,0.00,VWS V14.01,2013-06-25 17:42:00,
2013-06-25 12:45:00,88.4,74.7,30.07,WNW,292,2.0,6.0,64,0.00,,---,0.00,VWS V14.01,2013-06-25 17:45:00,
2013-06-25 12:47:00,88.7,77.2,30.07,WNW,296,1.0,4.0,69,0.00,,---,0.00,VWS V14.01,2013-06-25 17:47:00,
2013-06-25 12:52:00,89.4,76.1,30.07,West,259,1.0,7.0,65,0.00,,---,0.00,VWS V14.01,2013-06-25 17:52:00,
2013-06-25 12:57:00,89.4,74.7,30.07,West,269,4.0,7.0,62,0.00,,---,0.00,VWS V14.01,2013-06-25 17:57:00,
2013-06-25 13:00:00,89.6,75.8,30.06,SW,223,1.0,7.0,64,0.00,,---,0.00,VWS V14.01,2013-06-25 18:00:00,
2013-06-25 13:02:00,89.8,76.0,30.06,SSW,204,0.0,1.0,64,0.00,,---,0.00,VWS V14.01,2013-06-25 18:02:00,
2013-06-25 13:08:00,89.6,74.4,30.06,SSW,199,0.0,6.0,61,0.00,,---,0.00,VWS V14.01,2013-06-25 18:08:00,
2013-06-25 13:13:00,90.2,74.9,30.06,South,184,0.0,6.0,61,0.00,,---,0.00,VWS V14.01,2013-06-25 18:13:00,
2013-06-25 13:15:00,90.2,74.9,30.06,South,184,0.0,6.0,61,0.00,,---,0.00,VWS V14.01,2013-06-25 18:15:00,
2013-06-25 13:18:00,90.7,76.4,30.06,SSE,149,0.0,0.0,63,0.00,,---,0.00,VWS V14.01,2013-06-25 18:18:00,
2013-06-25 13:23:00,90.8,74.0,30.06,South,184,0.0,0.0,58,0.00,,---,0.00,VWS V14.01,2013-06-25 18:23:00,
2013-06-25 13:29:00,89.8,76.5,30.06,West,267,0.0,1.0,65,0.00,,---,0.00,VWS V14.01,2013-06-25 18:29:00,
2013-06-25 13:30:00,89.5,74.8,30.06,West,263,0.0,1.0,62,0.00,,---,0.00,VWS V14.01,2013-06-25 18:30:00,
2013-06-25 13:34:00,88.4,76.1,30.06,WSW,239,1.0,5.0,67,0.00,,---,0.00,VWS V14.01,2013-06-25 18:34:00,
2013-06-25 13:39:00,88.1,75.8,30.06,WSW,256,0.0,5.0,67,0.00,,---,0.00,VWS V14.01,2013-06-25 18:39:00,
2013-06-25 13:44:00,88.9,75.6,30.06,West,274,7.0,7.0,65,0.00,,---,0.00,VWS V14.01,2013-06-25 18:44:00,
2013-06-25 13:45:00,89.0,75.7,30.06,West,263,7.0,9.0,65,0.00,,---,0.00,VWS V14.01,2013-06-25 18:45:00,
2013-06-25 13:49:00,89.7,75.4,30.06,SW,224,0.0,7.0,63,0.00,,---,0.00,VWS V14.01,2013-06-25 18:49:00,
2013-06-25 13:54:00,90.3,76.5,30.06,SW,214,3.0,7.0,64,0.00,,---,0.00,VWS V14.01,2013-06-25 18:54:00,
2013-06-25 13:59:00,89.7,75.4,30.05,SW,215,0.0,10.0,63,0.00,,---,0.00,VWS V14.01,2013-06-25 18:59:00,
2013-06-25 14:00:00,89.7,75.9,30.05,SW,215,0.0,10.0,64,0.00,,---,0.00,VWS V14.01,2013-06-25 19:00:00,
2013-06-25 14:05:00,90.4,74.6,30.05,West,265,5.0,9.0,60,0.00,,---,0.00,VWS V14.01,2013-06-25 19:05:00,
2013-06-25 14:10:00,89.6,75.8,30.05,West,279,0.0,9.0,64,0.00,,---,0.00,VWS V14.01,2013-06-25 19:10:00,
2013-06-25 14:15:00,89.0,74.8,30.05,West,262,4.0,7.0,63,0.00,,---,0.00,VWS V14.01,2013-06-25 19:15:00,
2013-06-25 14:20:00,88.9,75.2,30.05,SW,225,0.0,7.0,64,0.00,,---,0.00,VWS V14.01,2013-06-25 19:20:00,
2013-06-25 14:25:00,88.8,73.6,30.05,West,279,0.0,7.0,61,0.00,,---,0.00,VWS V14.01,2013-06-25 19:25:00,
2013-06-25 14:30:00,89.1,74.9,30.05,SW,236,4.0,4.0,63,0.00,,---,0.00,VWS V14.01,2013-06-25 19:30:00,
2013-06-25 14:35:00,89.5,76.7,30.05,West,262,5.0,7.0,66,0.00,,---,0.00,VWS V14.01,2013-06-25 19:35:00,
2013-06-25 14:40:00,89.9,74.2,30.05,WSW,238,0.0,7.0,60,0.00,,---,0.00,VWS V14.01,2013-06-25 19:40:00,
2013-06-25 14:45:00,90.2,73.9,30.04,West,265,0.0,0.0,59,0.00,,---,0.00,VWS V14.01,2013-06-25 19:45:00,
2013-06-25 14:50:00,90.0,73.8,30.04,SSW,211,2.0,10.0,59,0.00,,---,0.00,VWS V14.01,2013-06-25 19:50:00,
2013-06-25 14:55:00,90.4,73.1,30.04,West,264,2.0,10.0,57,0.00,,---,0.00,VWS V14.01,2013-06-25 19:55:00,
2013-06-25 15:00:00,90.4,73.1,30.04,SW,228,0.0,0.0,57,0.00,,---,0.00,VWS V14.01,2013-06-25 20:00:00,
2013-06-25 15:05:00,90.8,73.5,30.04,WSW,251,0.0,1.0,57,0.00,,---,0.00,VWS V14.01,2013-06-25 20:05:00,
2013-06-25 15:10:00,91.3,73.9,30.04,SSW,211,0.0,1.0,57,0.00,,---,0.00,VWS V14.01,2013-06-25 20:10:00,
2013-06-25 15:15:00,91.2,72.8,30.03,West,272,6.0,10.0,55,0.00,,---,0.00,VWS V14.01,2013-06-25 20:15:00,
2013-06-25 15:20:00,91.1,71.6,30.03,West,277,5.0,10.0,53,0.00,,---,0.00,VWS V14.01,2013-06-25 20:20:00,
2013-06-25 15:25:00,91.4,73.5,30.03,West,274,4.0,10.0,56,0.00,,---,0.00,VWS V14.01,2013-06-25 20:25:00,
2013-06-25 15:30:00,91.1,72.2,30.03,WNW,299,0.0,10.0,54,0.00,,---,0.00,VWS V14.01,2013-06-25 20:30:00,
2013-06-25 15:31:00,91.2,72.8,30.03,West,271,4.0,4.0,55,0.00,,---,0.00,VWS V14.01,2013-06-25 20:31:00,
2013-06-25 15:36:00,91.3,72.3,30.03,SSW,192,0.0,7.0,54,0.00,,---,0.00,VWS V14.01,2013-06-25 20:36:00,
2013-06-25 15:41:00,91.8,72.2,30.03,SW,215,4.0,7.0,53,0.00,,---,0.00,VWS V14.01,2013-06-25 20:41:00,
2013-06-25 15:45:00,91.8,72.8,30.02,SSW,194,0.0,7.0,54,0.00,,---,0.00,VWS V14.01,2013-06-25 20:45:00,
2013-06-25 15:46:00,91.8,72.2,30.02,West,274,0.0,1.0,53,0.00,,---,0.00,VWS V14.01,2013-06-25 20:46:00,
2013-06-25 15:51:00,91.1,72.2,30.02,West,276,0.0,1.0,54,0.00,,---,0.00,VWS V14.01,2013-06-25 20:51:00,
2013-06-25 15:56:00,91.3,73.9,30.02,West,270,0.0,6.0,57,0.00,,---,0.00,VWS V14.01,2013-06-25 20:56:00,
2013-06-25 16:00:00,91.0,72.6,30.02,SSW,199,3.0,10.0,55,0.00,,---,0.00,VWS V14.01,2013-06-25 21:00:00,
2013-06-25 16:01:00,91.0,70.4,30.02,SSW,202,5.0,10.0,51,0.00,,---,0.00,VWS V14.01,2013-06-25 21:01:00,
2013-06-25 16:06:00,91.2,72.2,30.02,South,185,0.0,10.0,54,0.00,,---,0.00,VWS V14.01,2013-06-25 21:06:00,
2013-06-25 16:11:00,91.5,72.0,30.02,SW,220,0.0,10.0,53,0.00,,---,0.00,VWS V14.01,2013-06-25 21:11:00,
2013-06-25 16:15:00,92.2,72.6,30.02,SW,221,0.0,10.0,53,0.00,,---,0.00,VWS V14.01,2013-06-25 21:15:00,
2013-06-25 16:16:00,92.5,72.3,30.02,SW,232,0.0,1.0,52,0.00,,---,0.00,VWS V14.01,2013-06-25 21:16:00,
2013-06-25 16:21:00,91.9,69.4,30.02,SSW,193,0.0,6.0,48,0.00,,---,0.00,VWS V14.01,2013-06-25 21:21:00,
2013-06-25 16:26:00,91.0,70.9,30.02,SSW,202,0.0,6.0,52,0.00,,---,0.00,VWS V14.01,2013-06-25 21:26:00,
2013-06-25 16:30:00,90.9,70.8,30.02,SSW,202,0.0,6.0,52,0.00,,---,0.00,VWS V14.01,2013-06-25 21:30:00,
2013-06-25 16:31:00,91.0,70.4,30.02,SW,214,1.0,6.0,51,0.00,,---,0.00,VWS V14.01,2013-06-25 21:31:00,
2013-06-25 16:36:00,91.1,72.7,30.02,SSW,200,0.0,6.0,55,0.00,,---,0.00,VWS V14.01,2013-06-25 21:36:00,
2013-06-25 16:41:00,91.5,72.5,30.02,SSW,202,0.0,6.0,54,0.00,,---,0.00,VWS V14.01,2013-06-25 21:41:00,
2013-06-25 16:45:00,91.3,72.3,30.01,SSW,192,0.0,6.0,54,0.00,,---,0.00,VWS V14.01,2013-06-25 21:45:00,
2013-06-25 16:46:00,91.1,71.6,30.01,SSW,193,0.0,0.0,53,0.00,,---,0.00,VWS V14.01,2013-06-25 21:46:00,
2013-06-25 16:47:00,91.0,71.5,30.01,SSW,193,0.0,0.0,53,0.00,,---,0.00,VWS V14.01,2013-06-25 21:47:00,
2013-06-25 16:52:00,91.2,72.8,30.01,SSW,206,0.0,6.0,55,0.00,,---,0.00,VWS V14.01,2013-06-25 21:52:00,
2013-06-25 16:57:00,90.7,73.4,30.01,SSW,209,0.0,6.0,57,0.00,,---,0.00,VWS V14.01,2013-06-25 21:57:00,
2013-06-25 17:00:00,90.5,73.2,30.01,SSW,193,0.0,6.0,57,0.00,,---,0.00,VWS V14.01,2013-06-25 22:00:00,
2013-06-25 17:02:00,90.1,74.3,30.01,SW,214,0.0,0.0,60,0.00,,---,0.00,VWS V14.01,2013-06-25 22:02:00,
2013-06-25 17:07:00,89.7,73.0,30.01,SW,227,0.0,0.0,58,0.00,,---,0.00,VWS V14.01,2013-06-25 22:07:00,
2013-06-25 17:12:00,89.4,73.7,30.01,WSW,251,0.0,6.0,60,0.00,,---,0.00,VWS V14.01,2013-06-25 22:12:00,
2013-06-25 17:15:00,89.5,73.8,30.01,WSW,251,0.0,6.0,60,0.00,,---,0.00,VWS V14.01,2013-06-25 22:15:00,
2013-06-25 17:17:00,89.8,74.1,30.01,West,261,0.0,0.0,60,0.00,,---,0.00,VWS V14.01,2013-06-25 22:17:00,
2013-06-25 17:22:00,90.6,71.7,30.01,SSW,203,0.0,9.0,54,0.00,,---,0.00,VWS V14.01,2013-06-25 22:22:00,
2013-06-25 17:27:00,90.9,74.1,30.01,SSW,205,0.0,9.0,58,0.00,,---,0.00,VWS V14.01,2013-06-25 22:27:00,
2013-06-25 17:30:00,90.9,73.6,30.00,SSW,207,0.0,9.0,57,0.00,,---,0.00,VWS V14.01,2013-06-25 22:30:00,
2013-06-25 17:32:00,90.9,72.5,30.00,SSW,194,0.0,0.0,55,0.00,,---,0.00,VWS V14.01,2013-06-25 22:32:00,
2013-06-25 17:37:00,90.7,72.9,30.00,SSW,209,5.0,5.0,56,0.00,,---,0.00,VWS V14.01,2013-06-25 22:37:00,
2013-06-25 17:42:00,90.5,73.2,30.00,South,185,0.0,6.0,57,0.00,,---,0.00,VWS V14.01,2013-06-25 22:42:00,
2013-06-25 17:45:00,90.5,72.7,30.00,South,187,0.0,6.0,56,0.00,,---,0.00,VWS V14.01,2013-06-25 22:45:00,
2013-06-25 17:47:00,90.6,72.8,30.00,South,187,0.0,0.0,56,0.00,,---,0.00,VWS V14.01,2013-06-25 22:47:00,
2013-06-25 17:52:00,90.8,74.0,30.00,WNW,287,0.0,1.0,58,0.00,,---,0.00,VWS V14.01,2013-06-25 22:52:00,
2013-06-25 17:57:00,90.4,72.6,30.00,SSW,213,0.0,1.0,56,0.00,,---,0.00,VWS V14.01,2013-06-25 22:57:00,
2013-06-25 18:00:00,90.3,73.0,29.99,South,181,0.0,1.0,57,0.00,,---,0.00,VWS V14.01,2013-06-25 23:00:00,
2013-06-25 18:03:00,90.1,73.3,29.99,West,277,0.0,0.0,58,0.00,,---,0.00,VWS V14.01,2013-06-25 23:03:00,
2013-06-25 18:08:00,89.5,73.8,29.99,West,259,0.0,1.0,60,0.00,,---,0.00,VWS V14.01,2013-06-25 23:08:00,
2013-06-25 18:13:00,89.2,74.0,29.99,SSW,210,0.0,1.0,61,0.00,,---,0.00,VWS V14.01,2013-06-25 23:13:00,
2013-06-25 18:15:00,89.1,72.9,29.99,WSW,250,0.0,1.0,59,0.00,,---,0.00,VWS V14.01,2013-06-25 23:15:00,
2013-06-25 18:18:00,88.9,73.7,29.99,West,259,0.0,0.0,61,0.00,,---,0.00,VWS V14.01,2013-06-25 23:18:00,
2013-06-25 18:23:00,89.0,73.3,29.99,SSW,195,0.0,1.0,60,0.00,,---,0.00,VWS V14.01,2013-06-25 23:23:00,
2013-06-25 18:28:00,89.0,73.8,29.99,SSW,195,0.0,1.0,61,0.00,,---,0.00,VWS V14.01,2013-06-25 23:28:00,
2013-06-25 18:30:00,89.0,73.3,29.99,SSW,196,0.0,1.0,60,0.00,,---,0.00,VWS V14.01,2013-06-25 23:30:00,
2013-06-25 18:33:00,88.9,76.1,29.99,SSW,196,0.0,0.0,66,0.00,,---,0.00,VWS V14.01,2013-06-25 23:33:00,
2013-06-25 18:39:00,88.4,73.7,29.99,South,190,0.0,1.0,62,0.00,,---,0.00,VWS V14.01,2013-06-25 23:39:00,
2013-06-25 18:44:00,88.3,73.2,29.98,South,182,0.0,5.0,61,0.00,,---,0.00,VWS V14.01,2013-06-25 23:44:00,
2013-06-25 18:45:00,88.3,73.2,29.98,South,182,0.0,5.0,61,0.00,,---,0.00,VWS V14.01,2013-06-25 23:45:00,
2013-06-25 18:49:00,88.3,74.1,29.98,SSW,200,0.0,0.0,63,0.00,,---,0.00,VWS V14.01,2013-06-25 23:49:00,
2013-06-25 18:54:00,88.1,74.4,29.98,SSW,213,0.0,0.0,64,0.00,,---,0.00,VWS V14.01,2013-06-25 23:54:00,
2013-06-25 18:59:00,87.7,74.5,29.98,SSW,213,0.0,1.0,65,0.00,,---,0.00,VWS V14.01,2013-06-25 23:59:00,
2013-06-25 19:00:00,87.7,74.5,29.98,SSW,213,0.0,1.0,65,0.00,,---,0.00,VWS V14.01,2013-06-26 00:00:00,
2013-06-25 19:04:00,87.5,74.3,29.98,SSW,213,0.0,0.0,65,0.00,,---,0.00,VWS V14.01,2013-06-26 00:04:00,
2013-06-25 19:09:00,87.4,75.1,29.98,SSW,213,0.0,0.0,67,0.00,,---,0.00,VWS V14.01,2013-06-26 00:09:00,
2013-06-25 19:14:00,86.8,75.8,29.98,SSW,213,0.0,0.0,70,0.00,,---,0.00,VWS V14.01,2013-06-26 00:14:00,
2013-06-25 19:15:00,86.8,75.8,29.98,SSW,213,0.0,0.0,70,0.00,,---,0.00,VWS V14.01,2013-06-26 00:15:00,
2013-06-25 19:19:00,86.1,76.8,29.98,SSW,213,0.0,0.0,74,0.00,,---,0.00,VWS V14.01,2013-06-26 00:19:00,
2013-06-25 19:24:00,85.5,76.3,29.98,SSW,213,0.0,0.0,74,0.00,,---,0.00,VWS V14.01,2013-06-26 00:24:00,
2013-06-25 19:29:00,84.9,76.1,29.98,SSW,213,0.0,0.0,75,0.00,,---,0.00,VWS V14.01,2013-06-26 00:29:00,
2013-06-25 19:30:00,85.0,76.2,29.98,SSW,213,0.0,0.0,75,0.00,,---,0.00,VWS V14.01,2013-06-26 00:30:00,
2013-06-25 19:34:00,84.6,76.6,29.98,SSW,213,0.0,0.0,77,0.00,,---,0.00,VWS V14.01,2013-06-26 00:34:00,
2013-06-25 19:39:00,84.1,75.7,29.98,SSW,213,0.0,0.0,76,0.00,,---,0.00,VWS V14.01,2013-06-26 00:39:00,
2013-06-25 19:45:00,83.8,76.2,29.98,SSW,213,0.0,0.0,78,0.00,,---,0.00,VWS V14.01,2013-06-26 00:45:00,
2013-06-25 19:50:00,83.5,76.3,29.98,SSW,213,0.0,0.0,79,0.00,,---,0.00,VWS V14.01,2013-06-26 00:50:00,
2013-06-25 19:55:00,83.2,76.4,29.98,SSW,213,0.0,0.0,80,0.00,,---,0.00,VWS V14.01,2013-06-26 00:55:00,
2013-06-25 20:00:00,82.7,76.7,29.98,SSW,213,0.0,0.0,82,0.00,,---,0.00,VWS V14.01,2013-06-26 01:00:00,
2013-06-25 20:05:00,82.3,76.3,29.98,SSW,213,0.0,0.0,82,0.00,,---,0.00,VWS V14.01,2013-06-26 01:05:00,
2013-06-25 20:10:00,81.9,75.9,29.98,SSW,213,0.0,0.0,82,0.00,,---,0.00,VWS V14.01,2013-06-26 01:10:00,
2013-06-25 20:15:00,81.6,76.3,29.98,SSW,213,0.0,0.0,84,0.00,,---,0.00,VWS V14.01,2013-06-26 01:15:00,
2013-06-25 20:20:00,81.4,76.1,29.98,SSW,213,0.0,1.0,84,0.00,,---,0.00,VWS V14.01,2013-06-26 01:20:00,
2013-06-25 20:25:00,81.3,76.0,29.98,SSW,213,0.0,1.0,84,0.00,,---,0.00,VWS V14.01,2013-06-26 01:25:00,
2013-06-25 20:30:00,81.2,76.3,29.98,SSW,213,0.0,0.0,85,0.00,,---,0.00,VWS V14.01,2013-06-26 01:30:00,
2013-06-25 20:36:00,81.1,76.2,29.98,SSW,213,0.0,0.0,85,0.00,,---,0.00,VWS V14.01,2013-06-26 01:36:00,
2013-06-25 20:40:00,81.0,76.1,29.98,SSW,213,0.0,0.0,85,0.00,,---,0.00,VWS V14.01,2013-06-26 01:40:00,
2013-06-25 20:45:00,80.9,76.0,29.99,SSW,213,0.0,0.0,85,0.00,,---,0.00,VWS V14.01,2013-06-26 01:45:00,
2013-06-25 20:51:00,80.8,76.2,29.99,SSW,213,0.0,0.0,86,0.00,,---,0.00,VWS V14.01,2013-06-26 01:51:00,
2013-06-25 20:56:00,80.7,76.5,29.99,SSW,213,0.0,0.0,87,0.00,,---,0.00,VWS V14.01,2013-06-26 01:56:00,
2013-06-25 21:00:00,80.7,76.5,29.99,SSW,213,0.0,0.0,87,0.00,,---,0.00,VWS V14.01,2013-06-26 02:00:00,
2013-06-25 21:01:00,80.6,76.4,29.99,SSW,213,0.0,0.0,87,0.00,,---,0.00,VWS V14.01,2013-06-26 02:01:00,
2013-06-25 21:06:00,80.5,76.6,29.99,SSW,213,0.0,0.0,88,0.00,,---,0.00,VWS V14.01,2013-06-26 02:06:00,
2013-06-25 21:11:00,80.3,76.4,29.99,SSW,213,0.0,0.0,88,0.00,,---,0.00,VWS V14.01,2013-06-26 02:11:00,
2013-06-25 21:15:00,80.1,76.2,29.99,SSW,213,0.0,0.0,88,0.00,,---,0.00,VWS V14.01,2013-06-26 02:15:00,
2013-06-25 21:16:00,80.0,76.1,29.99,SSW,213,0.0,0.0,88,0.00,,---,0.00,VWS V14.01,2013-06-26 02:16:00,
2013-06-25 21:21:00,79.9,76.0,29.99,SSW,213,0.0,0.0,88,0.00,,---,0.00,VWS V14.01,2013-06-26 02:21:00,
2013-06-25 21:26:00,79.8,76.3,29.99,SSW,213,0.0,0.0,89,0.00,,---,0.00,VWS V14.01,2013-06-26 02:26:00,
2013-06-25 21:30:00,79.7,76.2,30.00,SSW,213,0.0,0.0,89,0.00,,---,0.00,VWS V14.01,2013-06-26 02:30:00,
2013-06-25 21:31:00,79.7,76.2,30.00,SSW,213,0.0,0.0,89,0.00,,---,0.00,VWS V14.01,2013-06-26 02:31:00,
2013-06-25 21:36:00,79.6,76.4,30.00,SSW,213,0.0,0.0,90,0.00,,---,0.00,VWS V14.01,2013-06-26 02:36:00,
2013-06-25 21:41:00,79.4,76.2,30.00,SSW,213,0.0,0.0,90,0.00,,---,0.00,VWS V14.01,2013-06-26 02:41:00,
2013-06-25 21:45:00,79.4,76.2,30.00,SSW,213,0.0,0.0,90,0.00,,---,0.00,VWS V14.01,2013-06-26 02:45:00,
2013-06-25 21:46:00,79.3,76.1,30.00,SSW,213,0.0,0.0,90,0.00,,---,0.00,VWS V14.01,2013-06-26 02:46:00,
2013-06-25 21:52:00,79.2,76.0,30.00,SSW,213,0.0,0.0,90,0.00,,---,0.00,VWS V14.01,2013-06-26 02:52:00,
2013-06-25 21:57:00,79.0,75.8,30.00,SSW,213,0.0,0.0,90,0.00,,---,0.00,VWS V14.01,2013-06-26 02:57:00,
2013-06-25 22:00:00,78.9,76.1,30.01,SSW,213,0.0,0.0,91,0.00,,---,0.00,VWS V14.01,2013-06-26 03:00:00,
2013-06-25 22:02:00,78.8,75.9,30.01,SSW,213,0.0,0.0,91,0.00,,---,0.00,VWS V14.01,2013-06-26 03:02:00,
2013-06-25 22:07:00,78.6,75.8,30.01,SSW,213,0.0,0.0,91,0.00,,---,0.00,VWS V14.01,2013-06-26 03:07:00,
2013-06-25 22:12:00,78.5,75.7,30.01,SSW,213,0.0,0.0,91,0.00,,---,0.00,VWS V14.01,2013-06-26 03:12:00,
2013-06-25 22:15:00,78.4,75.6,30.01,SSW,213,0.0,0.0,91,0.00,,---,0.00,VWS V14.01,2013-06-26 03:15:00,
2013-06-25 22:17:00,78.4,75.9,30.01,SSW,213,0.0,0.0,92,0.00,,---,0.00,VWS V14.01,2013-06-26 03:17:00,
2013-06-25 22:22:00,78.3,75.8,30.01,SSW,213,0.0,0.0,92,0.00,,---,0.00,VWS V14.01,2013-06-26 03:22:00,
2013-06-25 22:27:00,78.2,75.7,30.01,SSW,213,0.0,0.0,92,0.00,,---,0.00,VWS V14.01,2013-06-26 03:27:00,
2013-06-25 22:30:00,78.1,75.6,30.01,SSW,213,0.0,0.0,92,0.00,,---,0.00,VWS V14.01,2013-06-26 03:30:00,
2013-06-25 22:32:00,78.0,75.5,30.01,SSW,213,0.0,0.0,92,0.00,,---,0.00,VWS V14.01,2013-06-26 03:32:00,
2013-06-25 22:37:00,77.8,75.3,30.01,SSW,213,0.0,0.0,92,0.00,,---,0.00,VWS V14.01,2013-06-26 03:37:00,
2013-06-25 22:42:00,77.6,75.4,30.01,SSW,213,0.0,0.0,93,0.00,,---,0.00,VWS V14.01,2013-06-26 03:42:00,
2013-06-25 22:43:00,77.6,75.4,30.01,SSW,213,0.0,0.0,93,0.00,,---,0.00,VWS V14.01,2013-06-26 03:43:00,
2013-06-25 22:45:00,77.6,75.4,30.00,SSW,213,0.0,0.0,93,0.00,,---,0.00,VWS V14.01,2013-06-26 03:45:00,
2013-06-25 22:48:00,77.5,75.3,30.00,SSW,213,0.0,0.0,93,0.00,,---,0.00,VWS V14.01,2013-06-26 03:48:00,
2013-06-25 22:53:00,77.4,75.2,30.00,SSW,213,0.0,0.0,93,0.00,,---,0.00,VWS V14.01,2013-06-26 03:53:00,
2013-06-25 22:58:00,77.2,75.0,30.00,SSW,213,0.0,0.0,93,0.00,,---,0.00,VWS V14.01,2013-06-26 03:58:00,
2013-06-25 23:00:00,77.2,75.3,30.01,SSW,213,0.0,0.0,94,0.00,,---,0.00,VWS V14.01,2013-06-26 04:00:00,
2013-06-25 23:01:00,77.2,75.3,30.01,SSW,213,0.0,0.0,94,0.00,,---,0.00,VWS V14.01,2013-06-26 04:01:00,
2013-06-25 23:02:00,77.2,75.3,30.01,SSW,213,0.0,1.0,94,0.00,,---,0.00,VWS V14.01,2013-06-26 04:02:00,
2013-06-25 23:07:00,77.1,75.2,30.01,SSW,213,0.0,1.0,94,0.00,,---,0.00,VWS V14.01,2013-06-26 04:07:00,
2013-06-25 23:12:00,76.9,75.1,30.01,SSW,213,0.0,1.0,94,0.00,,---,0.00,VWS V14.01,2013-06-26 04:12:00,
2013-06-25 23:15:00,76.8,74.9,30.01,SSW,213,0.0,1.0,94,0.00,,---,0.00,VWS V14.01,2013-06-26 04:15:00,
2013-06-25 23:17:00,76.7,74.8,30.01,SSW,213,0.0,0.0,94,0.00,,---,0.00,VWS V14.01,2013-06-26 04:17:00,
2013-06-25 23:22:00,76.6,74.8,30.01,SSW,213,0.0,0.0,94,0.00,,---,0.00,VWS V14.01,2013-06-26 04:22:00,
2013-06-25 23:27:00,76.4,74.9,30.01,SSW,213,0.0,0.0,95,0.00,,---,0.00,VWS V14.01,2013-06-26 04:27:00,
2013-06-25 23:30:00,76.4,74.9,30.01,SSW,213,0.0,0.0,95,0.00,,---,0.00,VWS V14.01,2013-06-26 04:30:00,
2013-06-25 23:32:00,76.3,74.8,30.01,SSW,213,0.0,0.0,95,0.00,,---,0.00,VWS V14.01,2013-06-26 04:32:00,
2013-06-25 23:37:00,76.2,74.7,30.01,SSW,213,0.0,0.0,95,0.00,,---,0.00,VWS V14.01,2013-06-26 04:37:00,
2013-06-25 23:42:00,76.1,74.6,30.01,SSW,213,0.0,0.0,95,0.00,,---,0.00,VWS V14.01,2013-06-26 04:42:00,
2013-06-25 23:45:00,76.1,74.6,30.01,SSW,213,0.0,0.0,95,0.00,,---,0.00,VWS V14.01,2013-06-26 04:45:00,
2013-06-25 23:48:00,76.1,74.6,30.01,SSW,213,0.0,0.0,95,0.00,,---,0.00,VWS V14.01,2013-06-26 04:48:00,
2013-06-25 23:53:00,76.1,74.6,30.01,SSW,213,0.0,0.0,95,0.00,,---,0.00,VWS V14.01,2013-06-26 04:53:00,
2013-06-25 23:58:00,76.0,74.2,30.01,SSW,213,0.0,0.0,94,0.00,,---,0.00,VWS V14.01,2013-06-26 04:58:00,